Time;durP1;ratioP1;P1;durP2;ratioP2;P2;SDS_P1;SDS_P2;PMS_P1;PMS_P2;Temp;Humidity;BMP_temperature;BMP_pressure;BME280_temperature;BME280_humidity;BME280_pressure;Samples;Min_cycle;Max_cycle;Signal;HPM_P1;HPM_P2
2023/08/01 00:01:09;;;;;;;13.02;5.95;;;15.90;99.90;;;15.61;100.00;96760.97;5004327;28;20497;-78
2023/08/01 00:03:36;;;;;;;16.17;6.22;;;16.00;99.90;;;15.63;100.00;96749.44;5009132;28;20517;-79
2023/08/01 00:06:04;;;;;;;14.45;5.95;;;16.00;99.90;;;15.66;100.00;96751.81;5004266;28;20046;-80
2023/08/01 00:08:31;;;;;;;15.85;6.20;;;16.00;99.90;;;15.68;100.00;96728.16;5012810;28;20067;-79
2023/08/01 00:10:58;;;;;;;12.63;6.30;;;16.00;99.90;;;15.69;100.00;96717.56;5006832;28;20041;-78
2023/08/01 00:13:28;;;;;;;12.25;6.60;;;16.10;99.90;;;15.71;100.00;96732.34;5004667;28;20045;-78
2023/08/01 00:15:54;;;;;;;13.93;5.97;;;16.00;99.90;;;15.77;100.00;96724.84;5012406;28;20652;-79
2023/08/01 00:18:36;;;;;;;9.70;5.28;;;16.10;99.90;;;15.81;100.00;96756.88;5009253;28;20113;-78
2023/08/01 00:21:09;;;;;;;8.48;4.63;;;16.10;99.90;;;15.87;100.00;96720.59;5010688;28;20065;-79
2023/08/01 00:23:37;;;;;;;11.52;5.80;;;16.20;99.90;;;15.85;100.00;96732.97;4987662;28;20077;-79
2023/08/01 00:26:05;;;;;;;13.45;5.13;;;16.20;99.90;;;15.92;100.00;96715.00;5021365;28;20460;-78
2023/08/01 00:28:33;;;;;;;12.52;5.90;;;16.20;99.90;;;15.93;100.00;96689.66;4991718;28;20096;-80
2023/08/01 00:31:11;;;;;;;13.57;5.75;;;16.20;99.90;;;15.98;100.00;96690.94;5009193;28;20068;-81
2023/08/01 00:33:38;;;;;;;11.05;5.65;;;16.30;99.90;;;15.86;100.00;96650.88;5011481;28;20418;-79
2023/08/01 00:36:09;;;;;;;14.27;5.63;;;16.20;99.90;;;15.83;100.00;96656.34;5004845;28;20556;-79
2023/08/01 00:38:37;;;;;;;9.07;4.28;;;16.10;99.90;;;15.87;100.00;96646.47;5005268;28;20049;-79
2023/08/01 00:41:04;;;;;;;10.52;5.60;;;16.20;99.90;;;15.88;100.00;96630.66;5004622;28;20061;-78
2023/08/01 00:43:31;;;;;;;15.07;6.45;;;16.20;99.90;;;15.89;100.00;96626.25;5010836;28;20054;-82
2023/08/01 00:46:01;;;;;;;11.02;5.20;;;16.20;99.90;;;15.88;100.00;96622.81;5007839;28;20054;-78
2023/08/01 00:48:29;;;;;;;11.23;6.25;;;16.20;99.90;;;15.82;100.00;96641.59;5008793;28;20041;-80
2023/08/01 00:50:59;;;;;;;10.02;5.38;;;16.20;99.90;;;15.86;100.00;96652.66;5002738;28;20053;-79
2023/08/01 00:53:27;;;;;;;15.70;5.30;;;16.10;99.90;;;15.87;100.00;96634.25;5008426;28;20042;-79
2023/08/01 00:55:55;;;;;;;13.98;5.47;;;16.20;99.90;;;15.88;100.00;96625.41;5002519;28;20077;-79
2023/08/01 00:58:22;;;;;;;10.30;5.60;;;16.20;99.90;;;15.85;100.00;96628.28;5011190;28;20050;-78
2023/08/01 01:00:49;;;;;;;12.90;5.93;;;16.20;99.90;;;15.87;100.00;96636.00;5003096;28;20050;-78
2023/08/01 01:03:17;;;;;;;9.63;5.25;;;16.20;99.90;;;15.94;100.00;96647.63;5003225;28;20093;-80
2023/08/01 01:06:08;;;;;;;14.98;6.75;;;16.20;99.90;;;15.90;100.00;96635.78;5002210;28;20050;-79
2023/08/01 01:08:35;;;;;;;10.68;5.50;;;16.20;99.90;;;15.91;100.00;96649.69;5008133;28;20497;-80
2023/08/01 01:11:04;;;;;;;11.35;5.63;;;16.20;99.90;;;15.93;100.00;96653.00;5009265;28;20088;-79
2023/08/01 01:13:31;;;;;;;10.30;5.57;;;16.20;99.90;;;15.93;100.00;96666.94;5004086;28;20045;-77
2023/08/01 01:15:58;;;;;;;10.95;4.75;;;16.20;99.90;;;15.92;100.00;96651.34;5004257;28;20057;-79
2023/08/01 01:18:25;;;;;;;15.57;5.88;;;16.20;99.90;;;15.91;100.00;96686.31;5007392;28;20081;-79
2023/08/01 01:20:52;;;;;;;19.42;7.30;;;16.20;99.90;;;15.78;100.00;96694.28;5001650;28;20046;-79
2023/08/01 01:23:20;;;;;;;13.27;5.95;;;16.20;99.90;;;15.71;100.00;96664.31;5006951;28;20497;-80
2023/08/01 01:25:52;;;;;;;10.70;4.90;;;16.10;99.90;;;15.79;100.00;96672.41;5005677;28;20045;-80
2023/08/01 01:28:20;;;;;;;9.65;5.43;;;16.10;99.90;;;15.76;100.00;96657.78;5007845;28;20050;-79
2023/08/01 01:30:49;;;;;;;10.18;5.10;;;16.10;99.90;;;15.82;100.00;96675.59;5007823;28;20081;-80
2023/08/01 01:33:17;;;;;;;13.20;5.38;;;16.10;99.90;;;15.81;100.00;96668.72;5008204;28;20056;-79
2023/08/01 01:35:44;;;;;;;11.52;5.28;;;16.10;99.90;;;15.84;100.00;96675.50;5005306;28;20794;-80
2023/08/01 01:38:11;;;;;;;12.82;5.22;;;16.10;99.90;;;15.85;100.00;96675.38;5004349;28;20428;-80
2023/08/01 01:40:38;;;;;;;9.57;4.97;;;16.10;99.90;;;15.85;100.00;96674.53;5005459;28;20061;-80
2023/08/01 01:43:05;;;;;;;11.10;5.20;;;16.10;99.90;;;15.86;100.00;96661.34;5007021;28;20054;-79
2023/08/01 01:45:35;;;;;;;15.50;6.10;;;16.10;99.90;;;15.83;100.00;96639.84;5006166;28;20101;-78
2023/08/01 01:48:19;;;;;;;10.77;5.72;;;16.10;99.90;;;15.82;100.00;96638.16;5008540;28;20473;-79
2023/08/01 01:50:46;;;;;;;14.98;6.60;;;16.10;99.90;;;15.79;100.00;96631.38;5009704;28;20050;-78
2023/08/01 01:53:13;;;;;;;16.08;6.32;;;16.10;99.90;;;15.82;100.00;96643.38;5009229;28;20139;-79
2023/08/01 01:55:40;;;;;;;13.25;5.20;;;16.10;99.90;;;15.83;100.00;96635.44;5011352;28;20420;-79
2023/08/01 01:58:07;;;;;;;11.70;5.30;;;16.10;99.90;;;15.88;100.00;96638.50;4991255;28;20127;-80
2023/08/01 02:00:35;;;;;;;13.15;6.18;;;16.10;99.90;;;15.82;100.00;96630.31;5006266;28;20130;-79
2023/08/01 02:03:03;;;;;;;12.35;5.70;;;16.10;99.90;;;15.83;100.00;96621.50;5009298;28;20049;-79
2023/08/01 02:05:30;;;;;;;13.32;6.35;;;16.20;99.90;;;15.86;100.00;96618.66;5008841;28;20668;-79
2023/08/01 02:07:57;;;;;;;10.43;5.00;;;16.10;99.90;;;15.88;100.00;96614.13;5007788;28;20057;-78
2023/08/01 02:10:25;;;;;;;12.52;6.20;;;16.10;99.90;;;15.88;100.00;96614.13;5007832;28;20050;-80
2023/08/01 02:12:55;;;;;;;14.10;5.90;;;16.20;99.90;;;15.86;100.00;96606.38;5009064;28;20073;-80
2023/08/01 02:15:22;;;;;;;17.35;7.10;;;16.10;99.90;;;15.81;100.00;96597.25;5008018;28;20050;-80
2023/08/01 02:17:50;;;;;;;13.18;6.15;;;16.10;99.90;;;15.82;100.00;96562.28;5008487;28;20577;-80
2023/08/01 02:20:17;;;;;;;11.95;5.50;;;16.10;99.90;;;15.86;100.00;96571.53;5005632;28;20046;-80
2023/08/01 02:22:44;;;;;;;23.50;6.60;;;16.10;99.90;;;15.86;100.00;96585.44;5010135;28;20165;-81
2023/08/01 02:25:11;;;;;;;11.98;5.80;;;16.10;99.90;;;15.86;100.00;96589.84;5009684;28;20620;-81
2023/08/01 02:27:38;;;;;;;15.30;6.13;;;16.10;99.90;;;15.83;100.00;96588.31;5008041;28;20077;-79
2023/08/01 02:30:06;;;;;;;11.80;5.90;;;16.10;99.90;;;15.88;100.00;96591.41;5004969;28;20084;-79
2023/08/01 02:32:33;;;;;;;10.48;5.63;;;16.10;99.90;;;15.91;100.00;96590.31;4989409;28;20092;-79
2023/08/01 02:35:00;;;;;;;17.73;6.40;;;16.20;99.90;;;15.85;100.00;96589.03;5008511;28;20612;-77
2023/08/01 02:37:28;;;;;;;12.07;5.13;;;16.20;99.90;;;15.91;100.00;96589.50;5011573;28;20093;-80
2023/08/01 02:39:55;;;;;;;11.35;5.35;;;16.10;99.90;;;15.85;100.00;96588.19;5010142;28;20124;-80
2023/08/01 02:42:22;;;;;;;12.70;6.45;;;16.20;99.90;;;15.90;100.00;96591.28;5005619;28;20081;-80
2023/08/01 02:44:49;;;;;;;16.23;6.90;;;16.20;99.90;;;15.84;100.00;96586.53;4990609;28;20491;-78
2023/08/01 02:47:16;;;;;;;14.10;6.32;;;16.20;99.90;;;15.85;100.00;96581.19;5007482;28;20452;-81
2023/08/01 02:49:43;;;;;;;12.93;5.65;;;16.20;99.90;;;15.88;100.00;96574.88;5008059;28;20059;-80
2023/08/01 02:52:10;;;;;;;15.75;7.43;;;16.20;99.90;;;15.83;100.00;96571.78;5006500;28;20045;-80
2023/08/01 02:54:38;;;;;;;14.80;6.45;;;16.20;99.90;;;15.86;100.00;96566.31;4989499;28;20043;-81
2023/08/01 02:57:05;;;;;;;11.98;5.70;;;16.20;99.90;;;15.94;100.00;96570.91;5010259;28;20092;-79
2023/08/01 02:59:33;;;;;;;13.98;5.55;;;16.20;99.90;;;15.93;100.00;96569.28;5002673;28;20120;-81
2023/08/01 03:02:01;;;;;;;15.00;6.32;;;16.20;99.90;;;15.91;100.00;96556.28;5008218;28;20057;-80
2023/08/01 03:04:28;;;;;;;14.10;5.47;;;16.20;99.90;;;15.91;100.00;96552.84;5006179;28;20104;-79
2023/08/01 03:07:12;;;;;;;14.10;5.18;;;16.20;99.90;;;15.86;100.00;96554.06;5008863;28;20493;-79
2023/08/01 03:09:39;;;;;;;12.70;4.97;;;16.20;99.90;;;15.92;100.00;96562.34;5009075;28;20156;-79
2023/08/01 03:12:06;;;;;;;12.15;4.82;;;16.20;99.90;;;15.96;100.00;96561.97;5002781;28;20061;-81
2023/08/01 03:14:33;;;;;;;10.50;4.97;;;16.20;99.90;;;15.91;100.00;96548.44;5003059;28;20058;-80
2023/08/01 03:17:01;;;;;;;10.50;5.00;;;16.20;99.90;;;15.93;100.00;96556.19;5007899;28;20117;-79
2023/08/01 03:19:28;;;;;;;11.65;5.00;;;16.20;99.90;;;15.93;100.00;96545.72;5001608;28;20120;-79
2023/08/01 03:21:55;;;;;;;10.48;5.00;;;16.30;99.90;;;15.94;100.00;96556.03;5001563;28;20394;-79
2023/08/01 03:24:22;;;;;;;12.65;5.28;;;16.30;99.90;;;15.93;100.00;96554.38;5007794;28;20041;-79
2023/08/01 03:26:49;;;;;;;14.07;4.80;;;16.30;99.90;;;15.92;100.00;96539.66;5004845;28;20486;-78
2023/08/01 03:29:16;;;;;;;9.70;4.32;;;16.20;99.90;;;15.90;100.00;96538.94;5005617;28;20042;-79
2023/08/01 03:31:44;;;;;;;14.73;5.10;;;16.20;99.90;;;15.86;100.00;96537.53;5007471;28;20101;-78
2023/08/01 03:34:12;;;;;;;11.65;4.45;;;16.20;99.90;;;15.84;100.00;96537.63;5010387;28;20473;-77
2023/08/01 03:36:40;;;;;;;9.48;4.60;;;16.10;99.90;;;15.81;100.00;96524.00;5007594;28;20080;-79
2023/08/01 03:39:09;;;;;;;10.32;4.40;;;16.10;99.90;;;15.69;100.00;96529.22;5013357;28;20053;-79
2023/08/01 03:41:37;;;;;;;12.55;5.18;;;16.10;99.90;;;15.68;100.00;96518.88;5012652;28;20049;-79
2023/08/01 03:44:04;;;;;;;9.35;4.10;;;16.10;99.90;;;15.68;100.00;96511.03;5009802;28;20058;-79
2023/08/01 03:46:31;;;;;;;8.40;4.22;;;16.10;99.90;;;15.75;100.00;96519.25;5011165;28;20131;-79
2023/08/01 03:48:59;;;;;;;9.30;4.60;;;16.10;99.90;;;15.72;100.00;96529.97;5012699;28;20050;-80
2023/08/01 03:51:26;;;;;;;10.23;4.50;;;16.00;99.90;;;15.83;100.00;96536.00;5012303;28;20509;-79
2023/08/01 03:53:53;;;;;;;11.63;4.35;;;16.10;99.90;;;15.73;100.00;96514.13;5012351;28;20046;-78
2023/08/01 03:56:39;;;;;;;10.50;4.72;;;16.10;99.90;;;15.71;100.00;96512.59;5012726;28;20049;-79
2023/08/01 03:59:07;;;;;;;11.05;4.47;;;16.00;99.90;;;15.71;100.00;96530.91;5009507;28;20061;-78
2023/08/01 04:01:34;;;;;;;10.40;4.30;;;16.00;99.90;;;15.69;100.00;96534.44;5005315;28;20478;-79
2023/08/01 04:04:01;;;;;;;8.18;4.10;;;16.00;99.90;;;15.73;100.00;96514.13;5005856;28;20054;-79
2023/08/01 04:06:28;;;;;;;8.07;4.93;;;16.00;99.90;;;15.66;100.00;96473.69;5013090;28;20236;-80
2023/08/01 04:08:56;;;;;;;9.57;5.32;;;16.00;99.90;;;15.60;100.00;96477.63;5006887;28;20053;-80
2023/08/01 04:11:23;;;;;;;9.00;5.38;;;15.90;99.90;;;15.58;100.00;96470.88;5003429;28;20081;-79
2023/08/01 04:13:50;;;;;;;11.85;6.35;;;15.90;99.90;;;15.48;100.00;96474.19;5007879;28;20468;-81
2023/08/01 04:16:20;;;;;;;10.40;6.07;;;15.80;99.90;;;15.42;100.00;96479.94;5010919;28;20049;-80
2023/08/01 04:18:47;;;;;;;13.60;5.85;;;15.80;99.90;;;15.36;100.00;96430.75;5010397;28;20053;-80
2023/08/01 04:21:15;;;;;;;16.48;7.72;;;15.70;99.90;;;15.29;100.00;96436.59;5012935;28;20127;-80
2023/08/01 04:23:42;;;;;;;12.63;6.97;;;15.70;99.90;;;15.20;100.00;96412.84;4994924;28;20046;-80
2023/08/01 04:26:09;;;;;;;13.93;7.55;;;15.70;99.90;;;15.15;100.00;96459.44;5009249;28;20049;-80
2023/08/01 04:28:36;;;;;;;13.10;7.47;;;15.60;99.90;;;15.14;100.00;96480.44;5012677;28;20065;-79
2023/08/01 04:31:04;;;;;;;17.27;7.50;;;15.50;99.90;;;15.14;100.00;96483.88;5012553;28;20136;-78
2023/08/01 04:33:31;;;;;;;14.38;8.20;;;15.50;99.90;;;15.00;100.00;96477.13;5012758;28;20041;-79
2023/08/01 04:35:58;;;;;;;18.73;8.18;;;15.40;99.90;;;14.85;100.00;96470.50;5011701;28;20498;-79
2023/08/01 04:38:25;;;;;;;15.63;8.55;;;15.30;99.90;;;14.85;100.00;96473.13;5013288;28;20053;-79
2023/08/01 04:40:52;;;;;;;13.20;8.95;;;15.30;99.90;;;14.82;100.00;96470.72;5011077;28;20479;-79
2023/08/01 04:43:19;;;;;;;14.80;7.40;;;15.20;99.90;;;14.81;100.00;96469.06;5008175;28;20103;-79
2023/08/01 04:45:46;;;;;;;14.23;7.47;;;15.20;99.90;;;14.78;100.00;96491.03;5011430;28;20105;-80
2023/08/01 04:48:13;;;;;;;14.18;7.30;;;15.20;99.90;;;14.74;100.00;96460.03;5009386;28;20178;-79
2023/08/01 04:50:40;;;;;;;12.48;6.65;;;15.20;99.90;;;14.72;100.00;96472.41;5011492;28;20505;-79
2023/08/01 04:53:07;;;;;;;11.45;6.57;;;15.20;99.90;;;14.68;100.00;96476.19;5008781;28;20042;-79
2023/08/01 04:55:34;;;;;;;12.57;6.47;;;15.10;99.90;;;14.72;100.00;96470.59;5009667;28;20053;-80
2023/08/01 04:58:01;;;;;;;12.45;6.47;;;15.10;99.90;;;14.66;100.00;96475.47;5008169;28;20054;-81
2023/08/01 05:00:28;;;;;;;10.68;6.63;;;15.10;99.90;;;14.67;100.00;96474.53;5005810;28;20077;-79
2023/08/01 05:02:55;;;;;;;13.00;6.95;;;15.00;99.90;;;14.64;100.00;96471.19;5012824;28;20053;-81
2023/08/01 05:05:23;;;;;;;8.60;5.20;;;15.00;99.90;;;14.64;100.00;96458.16;5008787;28;20047;-79
2023/08/01 05:07:50;;;;;;;8.90;5.35;;;15.00;99.90;;;14.60;100.00;96480.22;5007872;28;20299;-80
2023/08/01 05:10:17;;;;;;;7.47;4.20;;;15.00;99.90;;;14.59;100.00;96470.69;5012596;28;20046;-80
2023/08/01 05:12:44;;;;;;;9.48;4.60;;;15.00;99.90;;;14.61;100.00;96486.25;5014576;28;20046;-78
2023/08/01 05:15:12;;;;;;;8.70;4.60;;;15.00;99.90;;;14.63;100.00;96492.22;5009333;28;20152;-80
2023/08/01 05:17:39;;;;;;;7.82;3.72;;;15.00;99.90;;;14.70;100.00;96489.97;5013125;28;20045;-79
2023/08/01 05:20:07;;;;;;;6.40;4.15;;;15.00;99.90;;;14.66;100.00;96486.72;5013841;28;20064;-79
2023/08/01 05:22:34;;;;;;;6.53;3.58;;;15.10;99.90;;;14.65;100.00;96485.09;5014563;28;20054;-78
2023/08/01 05:25:03;;;;;;;5.78;2.72;;;15.00;99.90;;;14.69;100.00;96481.31;5010460;28;20049;-80
2023/08/01 05:27:31;;;;;;;5.07;2.88;;;15.10;99.90;;;14.72;100.00;96482.84;5014610;28;20116;-78
2023/08/01 05:29:58;;;;;;;9.25;3.15;;;15.10;99.90;;;14.74;100.00;96499.22;5007300;28;20436;-79
2023/08/01 05:32:25;;;;;;;6.25;3.72;;;15.10;99.90;;;14.72;100.00;96478.44;5015518;28;20050;-79
2023/08/01 05:34:52;;;;;;;5.47;2.92;;;15.10;99.90;;;14.77;100.00;96493.75;5013939;28;20066;-80
2023/08/01 05:37:19;;;;;;;6.13;3.58;;;15.10;99.90;;;14.75;100.00;96477.38;5005448;28;20104;-79
2023/08/01 05:39:46;;;;;;;5.45;3.05;;;15.10;99.90;;;14.78;100.00;96477.13;5010355;28;20045;-79
2023/08/01 05:42:13;;;;;;;8.20;3.28;;;15.10;99.90;;;14.79;100.00;96482.25;5026106;28;20185;-80
2023/08/01 05:44:40;;;;;;;5.22;2.92;;;15.10;99.90;;;14.77;100.00;96499.81;5010282;28;20328;-79
2023/08/01 05:47:07;;;;;;;5.80;3.22;;;15.10;99.90;;;14.79;100.00;96491.88;5010356;28;20046;-83
2023/08/01 05:49:34;;;;;;;4.22;2.10;;;15.20;99.90;;;14.89;100.00;96515.50;5010241;28;20041;-79
2023/08/01 05:52:02;;;;;;;4.18;1.98;;;15.20;99.90;;;14.88;100.00;96506.00;5006328;28;20566;-81
2023/08/01 05:54:29;;;;;;;5.30;2.53;;;15.20;99.90;;;14.90;100.00;96514.56;5009353;28;20108;-81
2023/08/01 05:56:57;;;;;;;4.63;2.33;;;15.20;99.90;;;14.93;100.00;96512.53;5007842;28;20488;-80
2023/08/01 05:59:24;;;;;;;5.78;2.15;;;15.20;99.90;;;14.94;100.00;96508.13;5004668;28;20468;-82
2023/08/01 06:01:51;;;;;;;5.75;1.30;;;15.20;99.90;;;14.90;100.00;96498.88;4997474;28;20112;-82
2023/08/01 06:04:18;;;;;;;2.92;1.45;;;15.20;99.90;;;15.00;100.00;96518.94;5009602;28;20056;-79
2023/08/01 06:06:46;;;;;;;2.28;1.27;;;15.20;99.90;;;15.02;100.00;96526.66;5006616;28;20049;-79
2023/08/01 06:09:13;;;;;;;2.90;1.40;;;15.30;99.90;;;14.99;100.00;96386.63;5005209;28;20065;-80
2023/08/01 06:11:40;;;;;;;2.42;1.25;;;15.30;99.90;;;15.59;100.00;96258.88;5001917;28;20042;-80
2023/08/01 06:14:07;;;;;;;2.30;1.02;;;15.30;99.90;;;18.27;100.00;96112.50;5004969;28;20097;-80
2023/08/01 06:16:34;;;;;;;2.05;1.00;;;15.40;99.90;;;15.66;100.00;96225.19;4986975;28;20061;-80
2023/08/01 06:19:02;;;;;;;2.15;0.90;;;15.30;99.90;;;15.58;100.00;96334.88;5002522;28;20073;-79
2023/08/01 06:21:29;;;;;;;1.60;0.90;;;15.30;99.90;;;15.51;100.00;96394.69;5005989;28;20508;-80
2023/08/01 06:23:56;;;;;;;2.95;0.80;;;15.40;99.90;;;15.57;100.00;96443.03;5008663;28;20073;-80
2023/08/01 06:26:23;;;;;;;1.73;0.68;;;15.50;99.90;;;15.67;100.00;96452.66;5011655;28;20070;-81
2023/08/01 06:28:52;;;;;;;1.15;0.60;;;15.60;99.90;;;15.82;100.00;96491.63;5008300;28;20048;-81
2023/08/01 06:31:22;;;;;;;1.35;0.70;;;15.60;99.90;;;15.82;100.00;96510.75;5009459;28;20056;-80
2023/08/01 06:33:49;;;;;;;1.35;0.60;;;15.70;99.90;;;16.00;100.00;96526.75;5009727;28;20054;-81
2023/08/01 06:36:17;;;;;;;1.33;0.50;;;15.80;99.90;;;16.04;100.00;96538.66;5008542;28;20049;-80
2023/08/01 06:38:47;;;;;;;1.05;0.50;;;15.90;99.90;;;16.11;100.00;96546.84;5011448;28;20065;-82
2023/08/01 06:41:14;;;;;;;1.13;0.60;;;16.00;99.90;;;16.22;100.00;96559.88;5012738;28;20054;-81
2023/08/01 06:43:41;;;;;;;1.98;0.60;;;16.00;99.90;;;16.28;100.00;96550.69;5003888;28;20046;-80
2023/08/01 06:46:09;;;;;;;1.42;0.60;;;16.10;99.90;;;16.42;100.00;96531.22;4997230;28;20096;-79
2023/08/01 06:48:37;;;;;;;1.27;0.60;;;16.20;99.90;;;16.48;100.00;96518.44;5013366;28;20042;-79
2023/08/01 06:51:04;;;;;;;1.20;0.60;;;16.20;99.90;;;16.58;100.00;96510.66;5011926;28;20050;-79
2023/08/01 06:53:31;;;;;;;0.73;0.30;;;16.30;99.90;;;16.56;100.00;96519.59;5012453;28;20069;-79
2023/08/01 06:55:58;;;;;;;2.00;0.30;;;16.40;99.90;;;16.62;100.00;96527.75;5008936;28;20493;-79
2023/08/01 06:58:25;;;;;;;1.13;0.45;;;16.40;99.90;;;16.56;100.00;96501.25;5012822;28;20050;-78
2023/08/01 07:00:52;;;;;;;0.73;0.30;;;16.40;99.90;;;16.77;100.00;96512.56;5010266;28;20058;-79
2023/08/01 07:03:19;;;;;;;0.63;0.38;;;16.30;99.90;;;16.75;100.00;96506.63;4986101;28;20225;-78
2023/08/01 07:05:46;;;;;;;0.55;0.30;;;16.30;99.90;;;16.83;100.00;96516.47;5002890;28;20398;-79
2023/08/01 07:08:13;;;;;;;0.60;0.32;;;16.30;99.90;;;16.89;100.00;96515.97;5007597;28;20124;-79
2023/08/01 07:10:41;;;;;;;1.05;0.40;;;16.30;99.90;;;16.92;100.00;96511.31;5005698;28;20069;-79
2023/08/01 07:13:08;;;;;;;0.75;0.30;;;16.40;99.90;;;16.79;100.00;96517.69;5013606;28;20050;-79
2023/08/01 07:15:35;;;;;;;1.85;0.40;;;16.40;99.90;;;16.87;100.00;96510.00;5011548;28;20442;-80
2023/08/01 07:18:03;;;;;;;0.35;0.30;;;16.50;99.90;;;17.03;100.00;96506.91;5008764;28;20069;-80
2023/08/01 07:20:30;;;;;;;0.93;0.40;;;16.50;99.90;;;16.79;100.00;96507.19;5008868;28;20144;-79
2023/08/01 07:22:57;;;;;;;2.30;0.60;;;16.50;99.90;;;16.78;100.00;96497.66;5011504;28;20049;-79
2023/08/01 07:25:26;;;;;;;2.08;0.68;;;16.50;99.90;;;16.95;100.00;96510.19;5009564;28;20054;-79
2023/08/01 07:27:53;;;;;;;0.82;0.40;;;16.50;99.90;;;17.08;100.00;96507.34;5007942;28;20050;-78
2023/08/01 07:30:20;;;;;;;0.60;0.40;;;16.60;99.90;;;17.10;100.00;96492.31;5008101;28;20072;-80
2023/08/01 07:32:48;;;;;;;0.50;0.40;;;16.60;99.90;;;17.23;100.00;96490.28;5008524;28;20045;-79
2023/08/01 07:35:15;;;;;;;2.25;0.40;;;16.80;99.90;;;17.27;100.00;96488.25;5008934;28;20049;-79
2023/08/01 07:37:42;;;;;;;0.80;0.50;;;16.80;99.90;;;17.27;100.00;96485.63;5015138;28;20046;-81
2023/08/01 07:40:12;;;;;;;0.70;0.40;;;16.80;99.90;;;17.90;100.00;96456.44;4998018;28;20054;-79
2023/08/01 07:42:39;;;;;;;0.60;0.40;;;17.10;99.90;;;17.86;100.00;96460.31;5014101;28;20054;-79
2023/08/01 07:45:07;;;;;;;0.68;0.40;;;17.40;99.90;;;17.80;100.00;96450.34;5015412;28;20444;-79
2023/08/01 07:47:34;;;;;;;1.60;0.40;;;17.40;99.90;;;17.64;100.00;96437.78;5017247;28;20557;-78
2023/08/01 07:50:04;;;;;;;0.70;0.40;;;17.30;99.90;;;17.44;100.00;96456.09;5013013;28;20073;-78
2023/08/01 07:52:31;;;;;;;4.22;0.40;;;17.30;99.90;;;17.09;100.00;96473.13;5014547;28;20049;-79
2023/08/01 07:54:58;;;;;;;1.13;0.40;;;17.30;99.90;;;16.74;100.00;96481.38;5015894;28;20505;-78
2023/08/01 07:57:25;;;;;;;0.63;0.40;;;17.00;99.90;;;16.51;100.00;96472.81;5012151;28;20077;-79
2023/08/01 07:59:52;;;;;;;0.95;0.50;;;16.80;99.90;;;16.54;100.00;96464.72;5012398;28;20080;-78
2023/08/01 08:02:20;;;;;;;0.65;0.40;;;16.60;99.90;;;16.58;100.00;96462.66;5007793;28;20076;-78
2023/08/01 08:04:47;;;;;;;0.65;0.40;;;16.60;99.90;;;16.67;100.00;96474.97;5016126;28;20050;-79
2023/08/01 08:07:14;;;;;;;3.17;0.50;;;16.60;99.90;;;16.68;100.00;96481.91;5018050;28;20062;-80
2023/08/01 08:09:41;;;;;;;2.13;0.60;;;16.50;99.90;;;16.94;100.00;96471.81;5011097;28;20060;-79
2023/08/01 08:12:08;;;;;;;0.98;0.40;;;16.70;99.90;;;17.10;100.00;96479.19;5011696;28;20045;-79
2023/08/01 08:14:35;;;;;;;1.35;0.50;;;16.90;99.90;;;17.03;100.00;96470.22;5016979;28;20053;-80
2023/08/01 08:17:03;;;;;;;1.33;0.40;;;17.10;99.90;;;17.61;100.00;96454.63;5017126;28;20084;-79
2023/08/01 08:19:30;;;;;;;2.53;0.50;;;17.20;99.90;;;17.77;100.00;96460.16;5015182;28;20057;-80
2023/08/01 08:21:57;;;;;;;3.15;0.50;;;17.40;99.90;;;17.93;100.00;96467.53;5017858;28;20057;-80
2023/08/01 08:24:26;;;;;;;2.75;0.60;;;17.60;99.90;;;18.03;100.00;96446.50;5017085;28;20041;-79
2023/08/01 08:26:53;;;;;;;2.38;0.60;;;17.80;99.90;;;18.19;100.00;96449.38;5016443;28;20085;-80
2023/08/01 08:29:20;;;;;;;1.25;0.50;;;17.80;99.90;;;18.50;100.00;96430.81;5014141;28;20065;-80
2023/08/01 08:31:48;;;;;;;2.05;0.50;;;18.00;99.90;;;18.51;100.00;96426.38;5017228;28;20049;-78
2023/08/01 08:34:15;;;;;;;1.73;0.50;;;17.90;99.90;;;18.80;100.00;96405.28;5011375;28;20527;-80
2023/08/01 08:36:42;;;;;;;2.30;0.60;;;18.00;99.90;;;19.02;100.00;96423.31;5012235;28;20057;-79
2023/08/01 08:39:10;;;;;;;1.08;0.60;;;18.30;99.90;;;19.57;100.00;96400.56;5014948;28;20054;-80
2023/08/01 08:41:51;;;;;;;1.83;0.50;;;18.60;99.90;;;19.32;100.00;96407.38;5015086;28;20104;-79
2023/08/01 08:44:20;;;;;;;2.00;0.65;;;18.60;99.90;;;19.31;100.00;96408.31;5010046;28;20444;-79
2023/08/01 08:46:52;;;;;;;1.38;0.70;;;18.50;99.90;;;19.69;100.00;96402.00;5014461;28;20050;-78
2023/08/01 08:49:21;;;;;;;1.65;0.60;;;18.70;99.90;;;19.19;100.00;96407.72;5012076;28;20469;-79
2023/08/01 08:51:49;;;;;;;2.58;0.75;;;18.40;99.90;;;18.55;100.00;96415.44;4997822;28;20097;-79
2023/08/01 08:54:16;;;;;;;2.47;0.70;;;18.50;99.90;;;19.64;100.00;96407.69;5012018;28;20049;-78
2023/08/01 08:56:44;;;;;;;2.53;0.77;;;18.80;99.90;;;19.37;100.00;96399.84;4997325;28;20042;-78
2023/08/01 08:59:12;;;;;;;3.45;0.80;;;19.00;99.90;;;19.84;100.00;96404.91;4989890;28;20054;-78
2023/08/01 09:01:39;;;;;;;1.90;0.90;;;19.20;99.90;;;19.89;100.00;96393.91;5011146;28;20386;-79
2023/08/01 09:04:07;;;;;;;3.83;0.80;;;19.70;99.90;;;20.43;100.00;96406.00;5014960;28;20112;-79
2023/08/01 09:06:50;;;;;;;2.30;0.70;;;20.50;99.90;;;20.54;100.00;96401.47;5014286;28;20046;-79
2023/08/01 09:09:18;;;;;;;3.00;0.95;;;20.50;99.90;;;21.08;100.00;96402.91;5005324;28;20046;-79
2023/08/01 09:11:52;;;;;;;2.90;0.82;;;21.00;99.90;;;21.13;100.00;96388.41;5014275;28;20050;-78
2023/08/01 09:14:20;;;;;;;1.95;0.70;;;21.40;99.90;;;21.05;100.00;96412.94;5006715;28;20050;-79
2023/08/01 09:16:47;;;;;;;1.80;0.70;;;21.40;99.90;;;21.29;100.00;96389.25;5010726;28;20133;-79
2023/08/01 09:19:21;;;;;;;1.98;0.80;;;21.60;99.90;;;21.70;100.00;96397.28;5009305;28;20476;-79
2023/08/01 09:21:48;;;;;;;2.42;0.60;;;21.20;99.90;;;21.41;100.00;96418.03;5013435;28;20081;-79
2023/08/01 09:24:20;;;;;;;2.05;0.70;;;21.30;99.90;;;21.35;100.00;96390.44;5005644;28;20109;-78
2023/08/01 09:26:48;;;;;;;;;;;20.90;99.90;;;20.24;100.00;96396.50;5011697;28;20038;-81
2023/08/01 09:29:20;;;;;;;2.08;0.73;;;20.60;99.90;;;20.00;100.00;96402.44;4981396;28;20003;-80
2023/08/01 09:31:50;;;;;;;2.13;0.80;;;20.00;99.90;;;19.89;100.00;96396.56;5000924;28;20456;-80
2023/08/01 09:34:26;;;;;;;3.15;0.80;;;19.60;99.90;;;19.81;100.00;96408.69;4991983;28;20053;-80
2023/08/01 09:37:00;;;;;;;1.92;0.88;;;19.80;99.90;;;20.47;100.00;96404.72;5010091;28;20086;-78
2023/08/01 09:39:27;;;;;;;2.13;0.90;;;20.30;99.90;;;20.39;100.00;96406.47;5007396;28;20050;-79
2023/08/01 09:41:59;;;;;;;3.38;0.60;;;20.30;99.90;;;19.89;100.00;96417.63;5008136;28;20046;-79
2023/08/01 09:44:28;;;;;;;2.25;0.73;;;20.00;99.90;;;19.50;100.00;96424.00;5009142;28;20061;-80
2023/08/01 09:47:03;;;;;;;4.82;1.00;;;19.50;99.90;;;19.18;100.00;96434.97;5004405;28;20061;-79
2023/08/01 09:49:31;;;;;;;3.80;1.10;;;19.10;99.90;;;18.46;100.00;96429.44;5006118;28;20053;-79
2023/08/01 09:51:59;;;;;;;3.90;1.00;;;18.80;99.90;;;18.50;100.00;96437.88;5005942;28;20390;-78
2023/08/01 09:54:26;;;;;;;5.20;1.00;;;18.60;99.90;;;19.00;100.00;96434.97;5004366;28;20145;-79
2023/08/01 09:56:57;;;;;;;2.60;0.80;;;19.00;99.90;;;19.31;100.00;96442.53;5007206;28;20057;-78
2023/08/01 09:59:26;;;;;;;2.13;0.75;;;19.10;99.90;;;18.69;100.00;96445.69;5003453;28;20050;-79
2023/08/01 10:01:55;;;;;;;2.40;0.95;;;18.60;99.90;;;18.26;100.00;96462.78;5010826;28;20183;-78
2023/08/01 10:04:29;;;;;;;2.17;0.80;;;18.30;99.90;;;19.27;100.00;96478.81;5007607;28;20149;-79
2023/08/01 10:07:07;;;;;;;4.85;1.05;;;18.60;99.90;;;20.29;100.00;96445.28;5008700;28;20054;-79
2023/08/01 10:09:36;;;;;;;3.30;1.00;;;19.50;99.90;;;20.77;100.00;96446.59;5000919;28;20054;-78
2023/08/01 10:12:06;;;;;;;5.32;1.30;;;20.30;99.90;;;21.22;100.00;96459.50;5011494;28;20072;-80
2023/08/01 10:14:34;;;;;;;2.75;0.82;;;20.40;99.90;;;21.33;100.00;96439.94;5006281;28;20045;-78